sensor_id;sensor_type;location;lat;lon;timestamp;P1;durP1;ratioP1;P2;durP2;ratioP2
64500;SDS011;50874;24.150;-110.320;2023-05-29T00:01:38;11.35;;;2.95;;
64500;SDS011;50874;24.150;-110.320;2023-05-29T00:04:06;10.48;;;3.00;;
64500;SDS011;50874;24.150;-110.320;2023-05-29T00:06:32;12.32;;;2.78;;
64500;SDS011;50874;24.150;-110.320;2023-05-29T00:08:59;14.73;;;3.40;;
64500;SDS011;50874;24.150;-110.320;2023-05-29T00:11:26;14.23;;;3.55;;
64500;SDS011;50874;24.150;-110.320;2023-05-29T00:13:52;13.48;;;3.13;;
64500;SDS011;50874;24.150;-110.320;2023-05-29T00:16:19;11.27;;;2.40;;
64500;SDS011;50874;24.150;-110.320;2023-05-29T00:18:46;12.40;;;2.50;;
64500;SDS011;50874;24.150;-110.320;2023-05-29T00:21:12;12.40;;;3.47;;
64500;SDS011;50874;24.150;-110.320;2023-05-29T00:23:39;11.75;;;2.97;;
64500;SDS011;50874;24.150;-110.320;2023-05-29T00:26:06;14.75;;;3.40;;
64500;SDS011;50874;24.150;-110.320;2023-05-29T00:28:34;10.80;;;2.72;;
64500;SDS011;50874;24.150;-110.320;2023-05-29T00:31:01;7.85;;;2.40;;
64500;SDS011;50874;24.150;-110.320;2023-05-29T00:33:28;9.82;;;2.72;;
64500;SDS011;50874;24.150;-110.320;2023-05-29T00:35:55;12.32;;;2.58;;
64500;SDS011;50874;24.150;-110.320;2023-05-29T00:38:22;11.82;;;2.92;;
64500;SDS011;50874;24.150;-110.320;2023-05-29T00:40:48;9.05;;;2.40;;
64500;SDS011;50874;24.150;-110.320;2023-05-29T00:43:15;10.52;;;2.97;;
64500;SDS011;50874;24.150;-110.320;2023-05-29T00:45:41;14.02;;;2.53;;
64500;SDS011;50874;24.150;-110.320;2023-05-29T00:48:08;16.77;;;2.92;;
64500;SDS011;50874;24.150;-110.320;2023-05-29T00:50:34;10.32;;;2.40;;
64500;SDS011;50874;24.150;-110.320;2023-05-29T00:53:01;14.77;;;3.08;;
64500;SDS011;50874;24.150;-110.320;2023-05-29T00:55:28;12.25;;;3.30;;
64500;SDS011;50874;24.150;-110.320;2023-05-29T00:57:55;17.35;;;2.78;;
64500;SDS011;50874;24.150;-110.320;2023-05-29T01:00:22;12.48;;;2.78;;
64500;SDS011;50874;24.150;-110.320;2023-05-29T01:02:48;12.32;;;3.08;;
64500;SDS011;50874;24.150;-110.320;2023-05-29T01:05:17;14.85;;;2.97;;
64500;SDS011;50874;24.150;-110.320;2023-05-29T01:07:44;14.15;;;3.10;;
64500;SDS011;50874;24.150;-110.320;2023-05-29T01:10:11;16.80;;;2.88;;
64500;SDS011;50874;24.150;-110.320;2023-05-29T01:12:40;15.55;;;3.53;;
64500;SDS011;50874;24.150;-110.320;2023-05-29T01:16:21;11.68;;;3.00;;
64500;SDS011;50874;24.150;-110.320;2023-05-29T01:21:04;12.23;;;3.15;;
64500;SDS011;50874;24.150;-110.320;2023-05-29T01:24:03;13.07;;;3.33;;
64500;SDS011;50874;24.150;-110.320;2023-05-29T01:29:40;14.02;;;3.05;;
64500;SDS011;50874;24.150;-110.320;2023-05-29T01:32:09;15.80;;;3.72;;
64500;SDS011;50874;24.150;-110.320;2023-05-29T01:34:36;9.60;;;2.88;;
64500;SDS011;50874;24.150;-110.320;2023-05-29T01:37:03;12.43;;;3.42;;
64500;SDS011;50874;24.150;-110.320;2023-05-29T01:39:30;15.20;;;3.72;;
64500;SDS011;50874;24.150;-110.320;2023-05-29T01:41:57;16.55;;;3.63;;
64500;SDS011;50874;24.150;-110.320;2023-05-29T01:44:24;18.95;;;4.43;;
64500;SDS011;50874;24.150;-110.320;2023-05-29T01:46:52;27.42;;;4.22;;
64500;SDS011;50874;24.150;-110.320;2023-05-29T01:49:19;17.90;;;2.90;;
64500;SDS011;50874;24.150;-110.320;2023-05-29T01:51:49;15.63;;;3.20;;
64500;SDS011;50874;24.150;-110.320;2023-05-29T01:54:15;21.52;;;3.75;;
64500;SDS011;50874;24.150;-110.320;2023-05-29T01:56:42;11.45;;;3.00;;
64500;SDS011;50874;24.150;-110.320;2023-05-29T01:59:09;16.02;;;3.70;;
64500;SDS011;50874;24.150;-110.320;2023-05-29T02:01:40;13.82;;;3.15;;
64500;SDS011;50874;24.150;-110.320;2023-05-29T02:04:07;20.88;;;3.72;;
64500;SDS011;50874;24.150;-110.320;2023-05-29T02:06:34;19.02;;;3.25;;
64500;SDS011;50874;24.150;-110.320;2023-05-29T02:09:00;11.95;;;2.60;;
64500;SDS011;50874;24.150;-110.320;2023-05-29T02:11:27;18.90;;;3.85;;
64500;SDS011;50874;24.150;-110.320;2023-05-29T02:13:53;14.23;;;3.38;;
64500;SDS011;50874;24.150;-110.320;2023-05-29T02:16:19;20.20;;;3.80;;
64500;SDS011;50874;24.150;-110.320;2023-05-29T02:18:46;25.92;;;4.25;;
64500;SDS011;50874;24.150;-110.320;2023-05-29T02:21:14;25.08;;;4.05;;
64500;SDS011;50874;24.150;-110.320;2023-05-29T02:23:41;23.85;;;3.42;;
64500;SDS011;50874;24.150;-110.320;2023-05-29T02:26:08;19.13;;;3.70;;
64500;SDS011;50874;24.150;-110.320;2023-05-29T02:28:34;12.82;;;3.13;;
64500;SDS011;50874;24.150;-110.320;2023-05-29T02:31:02;21.00;;;3.42;;
64500;SDS011;50874;24.150;-110.320;2023-05-29T02:33:28;22.63;;;3.35;;
64500;SDS011;50874;24.150;-110.320;2023-05-29T02:35:55;20.67;;;4.68;;
64500;SDS011;50874;24.150;-110.320;2023-05-29T02:38:21;19.27;;;3.55;;
64500;SDS011;50874;24.150;-110.320;2023-05-29T02:40:48;17.17;;;4.03;;
64500;SDS011;50874;24.150;-110.320;2023-05-29T02:43:15;26.65;;;4.13;;
64500;SDS011;50874;24.150;-110.320;2023-05-29T02:45:41;14.35;;;3.58;;
64500;SDS011;50874;24.150;-110.320;2023-05-29T02:48:08;13.50;;;3.08;;
64500;SDS011;50874;24.150;-110.320;2023-05-29T02:50:34;25.02;;;4.15;;
64500;SDS011;50874;24.150;-110.320;2023-05-29T02:53:01;26.35;;;3.75;;
64500;SDS011;50874;24.150;-110.320;2023-05-29T02:55:27;14.25;;;3.08;;
64500;SDS011;50874;24.150;-110.320;2023-05-29T02:57:54;19.10;;;3.30;;
64500;SDS011;50874;24.150;-110.320;2023-05-29T03:00:21;21.60;;;3.72;;
64500;SDS011;50874;24.150;-110.320;2023-05-29T03:02:47;16.30;;;3.88;;
64500;SDS011;50874;24.150;-110.320;2023-05-29T03:05:14;24.35;;;4.07;;
64500;SDS011;50874;24.150;-110.320;2023-05-29T03:07:41;24.33;;;3.55;;
64500;SDS011;50874;24.150;-110.320;2023-05-29T03:10:08;20.75;;;4.20;;
64500;SDS011;50874;24.150;-110.320;2023-05-29T03:12:35;26.75;;;4.10;;
64500;SDS011;50874;24.150;-110.320;2023-05-29T03:15:01;22.30;;;4.18;;
64500;SDS011;50874;24.150;-110.320;2023-05-29T03:17:28;15.30;;;4.07;;
64500;SDS011;50874;24.150;-110.320;2023-05-29T03:19:54;11.77;;;3.45;;
64500;SDS011;50874;24.150;-110.320;2023-05-29T03:22:21;29.77;;;4.28;;
64500;SDS011;50874;24.150;-110.320;2023-05-29T03:24:47;13.82;;;3.60;;
64500;SDS011;50874;24.150;-110.320;2023-05-29T03:27:13;19.48;;;4.38;;
64500;SDS011;50874;24.150;-110.320;2023-05-29T03:29:40;19.90;;;3.97;;
64500;SDS011;50874;24.150;-110.320;2023-05-29T03:32:06;19.67;;;3.75;;
64500;SDS011;50874;24.150;-110.320;2023-05-29T03:34:33;22.00;;;4.25;;
64500;SDS011;50874;24.150;-110.320;2023-05-29T03:36:59;18.00;;;3.80;;
64500;SDS011;50874;24.150;-110.320;2023-05-29T03:39:26;24.48;;;4.05;;
64500;SDS011;50874;24.150;-110.320;2023-05-29T03:41:52;20.80;;;4.13;;
64500;SDS011;50874;24.150;-110.320;2023-05-29T03:44:19;14.07;;;3.65;;
64500;SDS011;50874;24.150;-110.320;2023-05-29T03:46:45;23.20;;;3.55;;
64500;SDS011;50874;24.150;-110.320;2023-05-29T03:49:12;25.20;;;4.13;;
64500;SDS011;50874;24.150;-110.320;2023-05-29T03:51:38;25.17;;;3.95;;
64500;SDS011;50874;24.150;-110.320;2023-05-29T03:54:06;24.45;;;5.00;;
64500;SDS011;50874;24.150;-110.320;2023-05-29T03:56:32;21.02;;;4.63;;
64500;SDS011;50874;24.150;-110.320;2023-05-29T03:59:00;21.45;;;4.30;;
64500;SDS011;50874;24.150;-110.320;2023-05-29T04:01:27;16.00;;;3.47;;
64500;SDS011;50874;24.150;-110.320;2023-05-29T04:03:53;21.70;;;3.53;;
64500;SDS011;50874;24.150;-110.320;2023-05-29T04:06:20;22.70;;;4.60;;
64500;SDS011;50874;24.150;-110.320;2023-05-29T04:08:47;26.38;;;3.78;;
64500;SDS011;50874;24.150;-110.320;2023-05-29T04:11:14;13.90;;;4.55;;
64500;SDS011;50874;24.150;-110.320;2023-05-29T04:13:40;19.30;;;5.28;;
64500;SDS011;50874;24.150;-110.320;2023-05-29T04:16:08;22.35;;;4.75;;
64500;SDS011;50874;24.150;-110.320;2023-05-29T04:18:35;15.23;;;3.67;;
64500;SDS011;50874;24.150;-110.320;2023-05-29T04:21:01;20.42;;;5.20;;
64500;SDS011;50874;24.150;-110.320;2023-05-29T04:23:28;14.43;;;4.40;;
64500;SDS011;50874;24.150;-110.320;2023-05-29T04:25:55;22.15;;;4.97;;
64500;SDS011;50874;24.150;-110.320;2023-05-29T04:28:21;20.70;;;3.85;;
64500;SDS011;50874;24.150;-110.320;2023-05-29T04:30:48;23.00;;;4.43;;
64500;SDS011;50874;24.150;-110.320;2023-05-29T04:33:16;14.50;;;5.10;;
64500;SDS011;50874;24.150;-110.320;2023-05-29T04:35:46;27.38;;;4.13;;
64500;SDS011;50874;24.150;-110.320;2023-05-29T04:38:13;37.35;;;4.85;;
64500;SDS011;50874;24.150;-110.320;2023-05-29T04:40:41;30.05;;;4.53;;
64500;SDS011;50874;24.150;-110.320;2023-05-29T04:43:09;21.73;;;4.85;;
64500;SDS011;50874;24.150;-110.320;2023-05-29T04:45:36;22.70;;;3.60;;
64500;SDS011;50874;24.150;-110.320;2023-05-29T04:48:03;19.33;;;4.30;;
64500;SDS011;50874;24.150;-110.320;2023-05-29T04:50:30;21.75;;;4.85;;
64500;SDS011;50874;24.150;-110.320;2023-05-29T04:52:57;26.50;;;5.68;;
64500;SDS011;50874;24.150;-110.320;2023-05-29T04:55:23;16.13;;;4.00;;
64500;SDS011;50874;24.150;-110.320;2023-05-29T04:57:50;18.65;;;4.18;;
64500;SDS011;50874;24.150;-110.320;2023-05-29T05:00:17;19.15;;;4.43;;
64500;SDS011;50874;24.150;-110.320;2023-05-29T05:02:44;23.38;;;4.85;;
64500;SDS011;50874;24.150;-110.320;2023-05-29T05:05:11;20.42;;;3.97;;
64500;SDS011;50874;24.150;-110.320;2023-05-29T05:07:37;21.25;;;4.22;;
64500;SDS011;50874;24.150;-110.320;2023-05-29T05:10:04;18.00;;;3.75;;
64500;SDS011;50874;24.150;-110.320;2023-05-29T05:12:31;23.02;;;4.07;;
64500;SDS011;50874;24.150;-110.320;2023-05-29T05:14:58;22.75;;;4.38;;
64500;SDS011;50874;24.150;-110.320;2023-05-29T05:17:24;24.90;;;4.18;;
64500;SDS011;50874;24.150;-110.320;2023-05-29T05:19:51;15.65;;;4.20;;
64500;SDS011;50874;24.150;-110.320;2023-05-29T05:22:18;21.35;;;4.60;;
64500;SDS011;50874;24.150;-110.320;2023-05-29T05:24:45;21.20;;;3.50;;
64500;SDS011;50874;24.150;-110.320;2023-05-29T05:27:11;22.27;;;4.75;;
64500;SDS011;50874;24.150;-110.320;2023-05-29T05:29:38;23.40;;;4.35;;
64500;SDS011;50874;24.150;-110.320;2023-05-29T05:32:05;23.45;;;4.07;;
64500;SDS011;50874;24.150;-110.320;2023-05-29T05:34:32;17.58;;;4.28;;
64500;SDS011;50874;24.150;-110.320;2023-05-29T05:36:58;20.00;;;4.78;;
64500;SDS011;50874;24.150;-110.320;2023-05-29T05:39:25;22.13;;;4.15;;
64500;SDS011;50874;24.150;-110.320;2023-05-29T05:41:51;13.68;;;3.92;;
64500;SDS011;50874;24.150;-110.320;2023-05-29T05:44:18;35.10;;;5.80;;
64500;SDS011;50874;24.150;-110.320;2023-05-29T05:46:44;28.75;;;4.40;;
64500;SDS011;50874;24.150;-110.320;2023-05-29T05:49:11;30.48;;;4.03;;
64500;SDS011;50874;24.150;-110.320;2023-05-29T05:51:37;23.42;;;4.82;;
64500;SDS011;50874;24.150;-110.320;2023-05-29T05:54:04;34.28;;;4.40;;
64500;SDS011;50874;24.150;-110.320;2023-05-29T05:56:30;23.58;;;4.22;;
64500;SDS011;50874;24.150;-110.320;2023-05-29T05:58:57;25.77;;;4.47;;
64500;SDS011;50874;24.150;-110.320;2023-05-29T06:01:23;27.05;;;3.58;;
64500;SDS011;50874;24.150;-110.320;2023-05-29T06:03:50;20.65;;;4.55;;
64500;SDS011;50874;24.150;-110.320;2023-05-29T06:06:16;25.42;;;5.18;;
64500;SDS011;50874;24.150;-110.320;2023-05-29T06:08:43;25.02;;;4.60;;
64500;SDS011;50874;24.150;-110.320;2023-05-29T06:11:10;24.20;;;4.07;;
64500;SDS011;50874;24.150;-110.320;2023-05-29T06:13:37;21.52;;;4.70;;
64500;SDS011;50874;24.150;-110.320;2023-05-29T06:16:04;22.45;;;4.43;;
64500;SDS011;50874;24.150;-110.320;2023-05-29T06:18:30;18.65;;;3.55;;
64500;SDS011;50874;24.150;-110.320;2023-05-29T06:20:56;29.33;;;4.88;;
64500;SDS011;50874;24.150;-110.320;2023-05-29T06:23:23;23.63;;;4.95;;
64500;SDS011;50874;24.150;-110.320;2023-05-29T06:25:49;16.35;;;3.67;;
64500;SDS011;50874;24.150;-110.320;2023-05-29T06:28:16;20.00;;;3.45;;
64500;SDS011;50874;24.150;-110.320;2023-05-29T06:30:42;26.77;;;4.45;;
64500;SDS011;50874;24.150;-110.320;2023-05-29T06:33:09;33.42;;;5.10;;
64500;SDS011;50874;24.150;-110.320;2023-05-29T06:35:35;23.15;;;4.43;;
64500;SDS011;50874;24.150;-110.320;2023-05-29T06:38:02;14.88;;;4.40;;
64500;SDS011;50874;24.150;-110.320;2023-05-29T06:40:28;16.48;;;4.20;;
64500;SDS011;50874;24.150;-110.320;2023-05-29T06:42:55;24.05;;;5.18;;
64500;SDS011;50874;24.150;-110.320;2023-05-29T06:45:21;20.42;;;3.70;;
64500;SDS011;50874;24.150;-110.320;2023-05-29T06:47:48;25.77;;;5.72;;
64500;SDS011;50874;24.150;-110.320;2023-05-29T06:50:14;19.25;;;4.43;;
64500;SDS011;50874;24.150;-110.320;2023-05-29T06:52:41;22.08;;;4.28;;
64500;SDS011;50874;24.150;-110.320;2023-05-29T06:55:07;16.05;;;4.60;;
64500;SDS011;50874;24.150;-110.320;2023-05-29T06:57:34;22.45;;;4.30;;
64500;SDS011;50874;24.150;-110.320;2023-05-29T07:00:00;23.75;;;3.55;;
64500;SDS011;50874;24.150;-110.320;2023-05-29T07:02:27;29.95;;;4.43;;
64500;SDS011;50874;24.150;-110.320;2023-05-29T07:04:53;19.80;;;5.25;;
64500;SDS011;50874;24.150;-110.320;2023-05-29T07:07:20;18.60;;;4.07;;
64500;SDS011;50874;24.150;-110.320;2023-05-29T07:09:46;18.42;;;4.55;;
64500;SDS011;50874;24.150;-110.320;2023-05-29T07:12:12;24.30;;;4.55;;
64500;SDS011;50874;24.150;-110.320;2023-05-29T07:14:39;19.33;;;4.72;;
64500;SDS011;50874;24.150;-110.320;2023-05-29T07:17:05;17.98;;;4.15;;
64500;SDS011;50874;24.150;-110.320;2023-05-29T07:19:32;19.52;;;4.55;;
64500;SDS011;50874;24.150;-110.320;2023-05-29T07:21:59;19.88;;;5.55;;
64500;SDS011;50874;24.150;-110.320;2023-05-29T07:24:26;23.05;;;5.03;;
64500;SDS011;50874;24.150;-110.320;2023-05-29T07:26:52;23.92;;;4.18;;
64500;SDS011;50874;24.150;-110.320;2023-05-29T07:29:20;17.70;;;3.67;;
64500;SDS011;50874;24.150;-110.320;2023-05-29T07:31:49;26.92;;;4.72;;
64500;SDS011;50874;24.150;-110.320;2023-05-29T07:34:16;25.33;;;5.35;;
64500;SDS011;50874;24.150;-110.320;2023-05-29T07:36:57;24.55;;;4.97;;
64500;SDS011;50874;24.150;-110.320;2023-05-29T07:39:29;15.95;;;4.18;;
64500;SDS011;50874;24.150;-110.320;2023-05-29T07:41:57;17.83;;;4.18;;
64500;SDS011;50874;24.150;-110.320;2023-05-29T07:44:24;28.60;;;5.75;;
64500;SDS011;50874;24.150;-110.320;2023-05-29T07:46:51;28.48;;;6.03;;
64500;SDS011;50874;24.150;-110.320;2023-05-29T07:49:19;15.95;;;3.92;;
64500;SDS011;50874;24.150;-110.320;2023-05-29T07:51:46;17.67;;;4.03;;
64500;SDS011;50874;24.150;-110.320;2023-05-29T07:54:12;20.52;;;4.32;;
64500;SDS011;50874;24.150;-110.320;2023-05-29T07:56:42;26.58;;;4.53;;
64500;SDS011;50874;24.150;-110.320;2023-05-29T07:59:09;28.42;;;5.05;;
64500;SDS011;50874;24.150;-110.320;2023-05-29T08:01:36;17.00;;;4.03;;
64500;SDS011;50874;24.150;-110.320;2023-05-29T08:04:04;18.92;;;3.97;;
64500;SDS011;50874;24.150;-110.320;2023-05-29T08:06:31;23.33;;;4.63;;
64500;SDS011;50874;24.150;-110.320;2023-05-29T08:09:01;21.95;;;4.85;;
64500;SDS011;50874;24.150;-110.320;2023-05-29T08:11:28;26.55;;;5.40;;
64500;SDS011;50874;24.150;-110.320;2023-05-29T08:13:55;24.75;;;4.43;;
64500;SDS011;50874;24.150;-110.320;2023-05-29T08:16:21;15.95;;;4.18;;
64500;SDS011;50874;24.150;-110.320;2023-05-29T08:18:48;27.67;;;4.25;;
64500;SDS011;50874;24.150;-110.320;2023-05-29T08:21:14;29.75;;;4.95;;
64500;SDS011;50874;24.150;-110.320;2023-05-29T08:23:41;16.00;;;3.50;;
64500;SDS011;50874;24.150;-110.320;2023-05-29T08:26:07;33.17;;;4.75;;
64500;SDS011;50874;24.150;-110.320;2023-05-29T08:28:34;21.05;;;4.93;;
64500;SDS011;50874;24.150;-110.320;2023-05-29T08:31:00;23.33;;;4.63;;
64500;SDS011;50874;24.150;-110.320;2023-05-29T08:33:27;20.23;;;4.57;;
64500;SDS011;50874;24.150;-110.320;2023-05-29T08:35:54;18.20;;;4.18;;
64500;SDS011;50874;24.150;-110.320;2023-05-29T08:38:22;22.08;;;4.22;;
64500;SDS011;50874;24.150;-110.320;2023-05-29T08:40:52;17.80;;;4.32;;
64500;SDS011;50874;24.150;-110.320;2023-05-29T08:43:22;21.20;;;4.10;;
64500;SDS011;50874;24.150;-110.320;2023-05-29T08:45:53;31.15;;;5.43;;
64500;SDS011;50874;24.150;-110.320;2023-05-29T08:48:23;20.48;;;4.15;;
64500;SDS011;50874;24.150;-110.320;2023-05-29T08:50:50;25.63;;;4.88;;
64500;SDS011;50874;24.150;-110.320;2023-05-29T08:53:20;16.15;;;4.03;;
64500;SDS011;50874;24.150;-110.320;2023-05-29T08:55:47;23.52;;;4.57;;
64500;SDS011;50874;24.150;-110.320;2023-05-29T08:58:17;21.58;;;5.00;;
64500;SDS011;50874;24.150;-110.320;2023-05-29T09:00:46;22.17;;;5.32;;
64500;SDS011;50874;24.150;-110.320;2023-05-29T09:03:17;17.85;;;4.25;;
64500;SDS011;50874;24.150;-110.320;2023-05-29T09:05:48;20.67;;;4.95;;
64500;SDS011;50874;24.150;-110.320;2023-05-29T09:08:14;18.05;;;4.57;;
64500;SDS011;50874;24.150;-110.320;2023-05-29T09:10:41;22.45;;;3.78;;
64500;SDS011;50874;24.150;-110.320;2023-05-29T09:13:09;16.90;;;4.13;;
64500;SDS011;50874;24.150;-110.320;2023-05-29T09:15:39;17.00;;;4.63;;
64500;SDS011;50874;24.150;-110.320;2023-05-29T09:18:08;26.67;;;5.05;;
64500;SDS011;50874;24.150;-110.320;2023-05-29T09:20:35;19.65;;;4.03;;
64500;SDS011;50874;24.150;-110.320;2023-05-29T09:23:02;15.57;;;3.58;;
64500;SDS011;50874;24.150;-110.320;2023-05-29T09:25:31;18.73;;;3.92;;
64500;SDS011;50874;24.150;-110.320;2023-05-29T09:28:02;19.90;;;4.90;;
64500;SDS011;50874;24.150;-110.320;2023-05-29T09:30:36;26.30;;;5.20;;
64500;SDS011;50874;24.150;-110.320;2023-05-29T09:33:07;28.63;;;5.43;;
64500;SDS011;50874;24.150;-110.320;2023-05-29T09:35:38;18.20;;;4.43;;
64500;SDS011;50874;24.150;-110.320;2023-05-29T09:38:12;23.02;;;3.72;;
64500;SDS011;50874;24.150;-110.320;2023-05-29T09:40:42;23.67;;;4.78;;
64500;SDS011;50874;24.150;-110.320;2023-05-29T09:43:18;15.20;;;4.38;;
64500;SDS011;50874;24.150;-110.320;2023-05-29T09:45:48;20.85;;;4.93;;
64500;SDS011;50874;24.150;-110.320;2023-05-29T09:48:16;18.65;;;4.18;;
64500;SDS011;50874;24.150;-110.320;2023-05-29T09:50:43;15.77;;;4.57;;
64500;SDS011;50874;24.150;-110.320;2023-05-29T09:53:22;21.05;;;4.40;;
64500;SDS011;50874;24.150;-110.320;2023-05-29T09:55:54;27.98;;;5.78;;
64500;SDS011;50874;24.150;-110.320;2023-05-29T09:58:21;20.15;;;4.78;;
64500;SDS011;50874;24.150;-110.320;2023-05-29T10:00:49;22.98;;;4.82;;
64500;SDS011;50874;24.150;-110.320;2023-05-29T10:03:19;16.85;;;3.88;;
64500;SDS011;50874;24.150;-110.320;2023-05-29T10:05:50;24.30;;;5.18;;
64500;SDS011;50874;24.150;-110.320;2023-05-29T10:08:22;24.98;;;4.75;;
64500;SDS011;50874;24.150;-110.320;2023-05-29T10:11:01;22.23;;;4.70;;
64500;SDS011;50874;24.150;-110.320;2023-05-29T10:13:31;23.25;;;5.60;;
64500;SDS011;50874;24.150;-110.320;2023-05-29T10:16:03;21.85;;;4.85;;
64500;SDS011;50874;24.150;-110.320;2023-05-29T10:18:37;21.65;;;5.82;;
64500;SDS011;50874;24.150;-110.320;2023-05-29T10:21:07;23.48;;;5.47;;
64500;SDS011;50874;24.150;-110.320;2023-05-29T10:23:37;21.17;;;5.38;;
64500;SDS011;50874;24.150;-110.320;2023-05-29T10:26:18;23.45;;;5.20;;
64500;SDS011;50874;24.150;-110.320;2023-05-29T10:28:55;28.65;;;6.20;;
64500;SDS011;50874;24.150;-110.320;2023-05-29T10:31:30;26.55;;;5.88;;
64500;SDS011;50874;24.150;-110.320;2023-05-29T10:37:05;21.42;;;6.53;;
64500;SDS011;50874;24.150;-110.320;2023-05-29T10:39:37;34.92;;;7.38;;
64500;SDS011;50874;24.150;-110.320;2023-05-29T10:42:14;27.90;;;6.85;;
64500;SDS011;50874;24.150;-110.320;2023-05-29T10:45:05;24.35;;;7.32;;
64500;SDS011;50874;24.150;-110.320;2023-05-29T10:47:32;30.20;;;7.70;;
64500;SDS011;50874;24.150;-110.320;2023-05-29T10:50:02;28.05;;;7.10;;
64500;SDS011;50874;24.150;-110.320;2023-05-29T10:52:32;37.60;;;7.47;;
64500;SDS011;50874;24.150;-110.320;2023-05-29T10:54:59;27.80;;;7.38;;
64500;SDS011;50874;24.150;-110.320;2023-05-29T10:57:29;35.67;;;7.28;;
64500;SDS011;50874;24.150;-110.320;2023-05-29T11:00:05;35.03;;;8.15;;
64500;SDS011;50874;24.150;-110.320;2023-05-29T11:02:37;25.92;;;7.05;;
64500;SDS011;50874;24.150;-110.320;2023-05-29T11:05:11;40.22;;;8.00;;
64500;SDS011;50874;24.150;-110.320;2023-05-29T11:07:55;23.55;;;7.22;;
64500;SDS011;50874;24.150;-110.320;2023-05-29T11:10:41;35.83;;;6.55;;
64500;SDS011;50874;24.150;-110.320;2023-05-29T11:13:22;33.50;;;7.43;;
64500;SDS011;50874;24.150;-110.320;2023-05-29T11:18:58;26.35;;;7.72;;
64500;SDS011;50874;24.150;-110.320;2023-05-29T11:24:24;32.53;;;7.82;;
64500;SDS011;50874;24.150;-110.320;2023-05-29T11:26:52;25.67;;;7.57;;
64500;SDS011;50874;24.150;-110.320;2023-05-29T11:29:24;39.03;;;7.78;;
64500;SDS011;50874;24.150;-110.320;2023-05-29T11:34:26;32.03;;;6.75;;
64500;SDS011;50874;24.150;-110.320;2023-05-29T11:36:56;30.17;;;8.50;;
64500;SDS011;50874;24.150;-110.320;2023-05-29T11:39:26;34.67;;;7.10;;
64500;SDS011;50874;24.150;-110.320;2023-05-29T11:41:54;36.38;;;7.95;;
64500;SDS011;50874;24.150;-110.320;2023-05-29T11:44:23;22.58;;;7.07;;
64500;SDS011;50874;24.150;-110.320;2023-05-29T11:47:03;22.85;;;7.10;;
64500;SDS011;50874;24.150;-110.320;2023-05-29T11:49:32;30.85;;;7.60;;
64500;SDS011;50874;24.150;-110.320;2023-05-29T11:52:05;23.55;;;7.28;;
64500;SDS011;50874;24.150;-110.320;2023-05-29T11:54:33;30.17;;;6.75;;
64500;SDS011;50874;24.150;-110.320;2023-05-29T11:57:00;32.05;;;7.90;;
64500;SDS011;50874;24.150;-110.320;2023-05-29T11:59:34;27.67;;;7.63;;
64500;SDS011;50874;24.150;-110.320;2023-05-29T12:02:03;28.00;;;8.20;;
64500;SDS011;50874;24.150;-110.320;2023-05-29T12:04:30;23.88;;;7.35;;
64500;SDS011;50874;24.150;-110.320;2023-05-29T12:06:56;26.13;;;7.72;;
64500;SDS011;50874;24.150;-110.320;2023-05-29T12:09:24;23.50;;;7.30;;
64500;SDS011;50874;24.150;-110.320;2023-05-29T12:11:51;30.20;;;8.18;;
64500;SDS011;50874;24.150;-110.320;2023-05-29T12:14:19;34.13;;;8.00;;
64500;SDS011;50874;24.150;-110.320;2023-05-29T12:16:46;24.88;;;7.70;;
64500;SDS011;50874;24.150;-110.320;2023-05-29T12:19:12;33.70;;;7.10;;
64500;SDS011;50874;24.150;-110.320;2023-05-29T12:21:42;25.85;;;6.60;;
64500;SDS011;50874;24.150;-110.320;2023-05-29T12:24:10;30.60;;;7.00;;
64500;SDS011;50874;24.150;-110.320;2023-05-29T12:26:36;29.70;;;6.80;;
64500;SDS011;50874;24.150;-110.320;2023-05-29T12:29:03;32.08;;;7.80;;
64500;SDS011;50874;24.150;-110.320;2023-05-29T12:31:30;24.02;;;7.05;;
64500;SDS011;50874;24.150;-110.320;2023-05-29T12:34:01;37.28;;;7.55;;
64500;SDS011;50874;24.150;-110.320;2023-05-29T12:36:32;26.58;;;7.20;;
64500;SDS011;50874;24.150;-110.320;2023-05-29T12:38:59;30.42;;;6.93;;
64500;SDS011;50874;24.150;-110.320;2023-05-29T12:41:29;30.13;;;6.95;;
64500;SDS011;50874;24.150;-110.320;2023-05-29T12:44:01;27.40;;;6.97;;
64500;SDS011;50874;24.150;-110.320;2023-05-29T12:46:34;30.23;;;7.13;;
64500;SDS011;50874;24.150;-110.320;2023-05-29T12:49:15;19.25;;;7.00;;
64500;SDS011;50874;24.150;-110.320;2023-05-29T12:51:45;20.17;;;5.97;;
64500;SDS011;50874;24.150;-110.320;2023-05-29T12:54:12;31.02;;;7.25;;
64500;SDS011;50874;24.150;-110.320;2023-05-29T12:56:40;26.20;;;6.30;;
64500;SDS011;50874;24.150;-110.320;2023-05-29T12:59:08;22.70;;;6.78;;
64500;SDS011;50874;24.150;-110.320;2023-05-29T13:01:38;30.92;;;7.03;;
64500;SDS011;50874;24.150;-110.320;2023-05-29T13:04:05;20.02;;;6.30;;
64500;SDS011;50874;24.150;-110.320;2023-05-29T13:06:35;20.30;;;5.60;;
64500;SDS011;50874;24.150;-110.320;2023-05-29T13:09:03;17.90;;;5.80;;
64500;SDS011;50874;24.150;-110.320;2023-05-29T13:11:34;18.92;;;5.57;;
64500;SDS011;50874;24.150;-110.320;2023-05-29T13:14:00;21.20;;;5.72;;
64500;SDS011;50874;24.150;-110.320;2023-05-29T13:16:27;23.58;;;6.22;;
64500;SDS011;50874;24.150;-110.320;2023-05-29T13:18:53;23.55;;;5.20;;
64500;SDS011;50874;24.150;-110.320;2023-05-29T13:21:19;29.10;;;5.65;;
64500;SDS011;50874;24.150;-110.320;2023-05-29T13:23:46;19.98;;;5.28;;
64500;SDS011;50874;24.150;-110.320;2023-05-29T13:26:12;19.38;;;4.97;;
64500;SDS011;50874;24.150;-110.320;2023-05-29T13:28:39;15.60;;;4.88;;
64500;SDS011;50874;24.150;-110.320;2023-05-29T13:31:05;27.55;;;5.57;;
64500;SDS011;50874;24.150;-110.320;2023-05-29T13:33:32;32.67;;;6.05;;
64500;SDS011;50874;24.150;-110.320;2023-05-29T13:35:58;32.35;;;6.82;;
64500;SDS011;50874;24.150;-110.320;2023-05-29T13:38:25;22.70;;;5.85;;
64500;SDS011;50874;24.150;-110.320;2023-05-29T13:40:51;23.02;;;5.35;;
64500;SDS011;50874;24.150;-110.320;2023-05-29T13:43:18;25.25;;;5.40;;
64500;SDS011;50874;24.150;-110.320;2023-05-29T13:45:44;29.70;;;5.32;;
64500;SDS011;50874;24.150;-110.320;2023-05-29T13:48:11;23.52;;;3.85;;
64500;SDS011;50874;24.150;-110.320;2023-05-29T13:50:37;24.08;;;5.47;;
64500;SDS011;50874;24.150;-110.320;2023-05-29T13:53:03;19.52;;;5.53;;
64500;SDS011;50874;24.150;-110.320;2023-05-29T13:55:30;23.50;;;5.05;;
64500;SDS011;50874;24.150;-110.320;2023-05-29T13:57:56;35.20;;;5.35;;
64500;SDS011;50874;24.150;-110.320;2023-05-29T14:00:23;27.05;;;6.05;;
64500;SDS011;50874;24.150;-110.320;2023-05-29T14:02:49;51.40;;;6.60;;
64500;SDS011;50874;24.150;-110.320;2023-05-29T14:05:16;41.42;;;6.25;;
64500;SDS011;50874;24.150;-110.320;2023-05-29T14:07:43;25.00;;;5.35;;
64500;SDS011;50874;24.150;-110.320;2023-05-29T14:10:10;19.23;;;4.32;;
64500;SDS011;50874;24.150;-110.320;2023-05-29T14:12:37;23.63;;;4.70;;
64500;SDS011;50874;24.150;-110.320;2023-05-29T14:15:03;25.27;;;4.15;;
64500;SDS011;50874;24.150;-110.320;2023-05-29T14:17:31;18.48;;;4.10;;
64500;SDS011;50874;24.150;-110.320;2023-05-29T14:19:57;34.88;;;4.60;;